createdAt,value
2019-01-12T00:00:03.410Z,1022.7
2019-01-12T00:01:03.601Z,1022.7
2019-01-12T00:02:02.878Z,1022.7
2019-01-12T00:03:03.811Z,1022.9
2019-01-12T00:04:03.436Z,1022.8
2019-01-12T00:05:03.490Z,1022.8
2019-01-12T00:06:02.942Z,1022.9
2019-01-12T00:07:02.949Z,1022.7
2019-01-12T00:08:03.563Z,1022.8
2019-01-12T00:09:03.195Z,1022.7
2019-01-12T00:10:02.935Z,1022.7
2019-01-12T00:11:03.093Z,1022.7
2019-01-12T00:12:03.101Z,1022.7
2019-01-12T00:13:03.365Z,1022.6
2019-01-12T00:14:03.705Z,1022.6
2019-01-12T00:15:02.872Z,1022.6
2019-01-12T00:16:03.699Z,1022.6
2019-01-12T00:17:03.419Z,1022.6
2019-01-12T00:18:02.868Z,1022.5
2019-01-12T00:19:03.656Z,1022.6
2019-01-12T00:20:03.303Z,1022.6
2019-01-12T00:21:03.037Z,1022.6
2019-01-12T00:22:03.102Z,1022.6
2019-01-12T00:23:03.254Z,1022.6
2019-01-12T00:24:03.421Z,1022.6
2019-01-12T00:25:03.664Z,1022.6
2019-01-12T00:26:03.053Z,1022.6
2019-01-12T00:27:03.287Z,1022.6
2019-01-12T00:28:03.683Z,1022.6
2019-01-12T00:29:02.735Z,1022.7
2019-01-12T00:30:03.570Z,1022.6
2019-01-12T00:31:03.262Z,1022.7
2019-01-12T00:32:03.275Z,1022.6
2019-01-12T00:33:03.453Z,1022.6
2019-01-12T00:34:03.331Z,1022.8
2019-01-12T00:35:03.563Z,1022.7
2019-01-12T00:36:03.221Z,1022.7
2019-01-12T00:37:03.729Z,1022.9
2019-01-12T00:38:03.151Z,1022.8
2019-01-12T00:39:03.465Z,1022.9
2019-01-12T00:40:03.452Z,1022.8
2019-01-12T00:41:03.568Z,1022.8
2019-01-12T00:42:02.846Z,1022.9
2019-01-12T00:43:03.568Z,1022.9
2019-01-12T00:44:03.403Z,1022.9
2019-01-12T00:45:03.770Z,1022.8
2019-01-12T00:46:03.078Z,1022.8
2019-01-12T00:47:03.095Z,1022.9
2019-01-12T00:48:03.102Z,1022.8
2019-01-12T00:49:02.951Z,1022.9
2019-01-12T00:50:03.469Z,1022.9
2019-01-12T00:51:03.059Z,1022.9
2019-01-12T00:52:03.638Z,1022.9
2019-01-12T00:53:03.084Z,1022.9
2019-01-12T00:54:03.055Z,1023
2019-01-12T00:55:03.172Z,1022.9
2019-01-12T00:56:03.726Z,1023
2019-01-12T00:57:03.241Z,1023
2019-01-12T00:58:03.592Z,1022.9
2019-01-12T00:59:02.925Z,1022.9
2019-01-12T01:00:03.339Z,1023
2019-01-12T01:01:02.997Z,1023
2019-01-12T01:02:03.796Z,1023
2019-01-12T01:03:03.390Z,1023.1
2019-01-12T01:04:03.643Z,1022.9
2019-01-12T01:05:03.260Z,1022.9
2019-01-12T01:06:02.838Z,1023
2019-01-12T01:07:03.010Z,1023
2019-01-12T01:08:03.375Z,1023
2019-01-12T01:09:02.808Z,1023
2019-01-12T01:10:03.196Z,1023
2019-01-12T01:11:03.690Z,1023.1
2019-01-12T01:12:02.993Z,1023
2019-01-12T01:13:03.192Z,1023
2019-01-12T01:14:02.893Z,1023.1
2019-01-12T01:15:03.282Z,1023.1
2019-01-12T01:16:03.522Z,1023.2
2019-01-12T01:17:03.116Z,1023.2
2019-01-12T01:18:03.311Z,1023.1
2019-01-12T01:19:03.215Z,1023.1
2019-01-12T01:20:03.316Z,1023.1
2019-01-12T01:21:03.714Z,1023.2
2019-01-12T01:22:03.435Z,1023.2
2019-01-12T01:23:03.029Z,1023.1
2019-01-12T01:24:02.983Z,1023.2
2019-01-12T01:25:03.328Z,1023.2
2019-01-12T01:26:03.111Z,1023.2
2019-01-12T01:27:03.758Z,1023.2
2019-01-12T01:28:03.288Z,1023.1
2019-01-12T01:29:03.498Z,1023.1
2019-01-12T01:30:03.648Z,1023.2
2019-01-12T01:31:03.486Z,1023.2
2019-01-12T01:32:02.849Z,1023.1
2019-01-12T01:33:03.705Z,1023.2
2019-01-12T01:34:03.442Z,1023.2
2019-01-12T01:35:03.730Z,1023.2
2019-01-12T01:36:03.266Z,1023.2
2019-01-12T01:37:02.824Z,1023.3
2019-01-12T01:38:03.539Z,1023.2
2019-01-12T01:39:03.059Z,1023.2
2019-01-12T01:40:02.945Z,1023.3
2019-01-12T01:41:03.704Z,1023.2
2019-01-12T01:42:03.836Z,1023.1
2019-01-12T01:43:03.292Z,1023.2
2019-01-12T01:44:03.702Z,1023
2019-01-12T01:45:03.313Z,1023.2
2019-01-12T01:46:03.540Z,1023.3
2019-01-12T01:47:02.728Z,1023.2
2019-01-12T01:48:03.754Z,1023.2
2019-01-12T01:49:02.797Z,1023.2
2019-01-12T01:50:03.562Z,1023.3
2019-01-12T01:51:03.781Z,1023.2
2019-01-12T01:52:03.352Z,1023.3
2019-01-12T01:53:02.945Z,1023.2
2019-01-12T01:54:03.566Z,1023.2
2019-01-12T01:55:03.943Z,1023.2
2019-01-12T01:56:03.372Z,1023.3
2019-01-12T01:57:03.486Z,1023.3
2019-01-12T01:58:03.073Z,1023.3
2019-01-12T01:59:03.688Z,1023.3
2019-01-12T02:00:03.065Z,1023.2
2019-01-12T02:01:03.600Z,1023.3
2019-01-12T02:02:02.941Z,1023.3
2019-01-12T02:03:03.766Z,1023.3
2019-01-12T02:04:03.636Z,1023.3
2019-01-12T02:05:03.261Z,1023.3
2019-01-12T02:06:03.878Z,1023.2
2019-01-12T02:07:03.095Z,1023.2
2019-01-12T02:08:03.763Z,1023.2
2019-01-12T02:09:02.798Z,1023.3
2019-01-12T02:10:03.474Z,1023.2
2019-01-12T02:11:03.671Z,1023.3
2019-01-12T02:12:03.142Z,1023.3
2019-01-12T02:13:03.231Z,1023.1
2019-01-12T02:14:03.020Z,1023.2
2019-01-12T02:15:03.331Z,1023.3
2019-01-12T02:16:02.760Z,1023.2
2019-01-12T02:17:03.381Z,1023.3
2019-01-12T02:18:03.623Z,1023.3
2019-01-12T02:19:02.796Z,1023.3
2019-01-12T02:20:03.848Z,1023.2
2019-01-12T02:21:03.076Z,1023.3
2019-01-12T02:22:03.314Z,1023.2
2019-01-12T02:23:02.905Z,1023.4
2019-01-12T02:24:03.148Z,1023.4
2019-01-12T02:25:03.815Z,1023.2
2019-01-12T02:26:03.337Z,1023.2
2019-01-12T02:27:03.458Z,1023.3
2019-01-12T02:28:03.048Z,1023.2
2019-01-12T02:29:03.510Z,1023.2
2019-01-12T02:30:03.099Z,1023.2
2019-01-12T02:31:03.309Z,1023.1
2019-01-12T02:32:03.465Z,1023.2
2019-01-12T02:33:03.727Z,1023.1
2019-01-12T02:34:02.966Z,1023.2
2019-01-12T02:35:03.588Z,1023.1
2019-01-12T02:36:03.790Z,1023.1
2019-01-12T02:37:03.648Z,1023.2
2019-01-12T02:38:03.387Z,1023.1
2019-01-12T02:39:03.577Z,1023.1
2019-01-12T02:40:03.600Z,1023.2
2019-01-12T02:41:03.364Z,1023.1
2019-01-12T02:42:02.926Z,1023
2019-01-12T02:43:03.703Z,1023
2019-01-12T02:44:03.139Z,1023
2019-01-12T02:45:03.336Z,1023.1
2019-01-12T02:46:03.709Z,1023.1
2019-01-12T02:47:03.556Z,1023.1
2019-01-12T02:48:03.127Z,1023.1
2019-01-12T02:49:03.289Z,1023.1
2019-01-12T02:50:02.778Z,1023
2019-01-12T02:51:02.683Z,1023.1
2019-01-12T02:52:03.005Z,1023.1
2019-01-12T02:53:03.810Z,1023.1
2019-01-12T02:54:03.007Z,1023.1
2019-01-12T02:55:09.665Z,1023.1
2019-01-12T02:56:02.963Z,1023.1
2019-01-12T02:57:03.722Z,1023.1
2019-01-12T02:58:03.030Z,1023.2
2019-01-12T02:59:03.727Z,1023.2
2019-01-12T03:00:03.247Z,1023.1
2019-01-12T03:01:01.878Z,1023.1
2019-01-12T03:02:03.775Z,1023.1
2019-01-12T03:03:03.079Z,1023
2019-01-12T03:04:03.756Z,1023
2019-01-12T03:05:03.073Z,1023.1
2019-01-12T03:06:03.679Z,1023.1
2019-01-12T03:07:03.084Z,1023.1
2019-01-12T03:08:03.216Z,1023
2019-01-12T03:09:02.816Z,1023
2019-01-12T03:10:02.957Z,1023
2019-01-12T03:11:02.677Z,1023
2019-01-12T03:12:03.270Z,1023
2019-01-12T03:13:02.859Z,1023
2019-01-12T03:14:03.244Z,1023
2019-01-12T03:15:03.072Z,1023
2019-01-12T03:16:03.577Z,1023.1
2019-01-12T03:17:03.127Z,1023
2019-01-12T03:18:03.687Z,1023.1
2019-01-12T03:19:03.729Z,1023
2019-01-12T03:20:04.196Z,1023.1
2019-01-12T03:21:03.693Z,1023.1
2019-01-12T03:22:03.301Z,1023
2019-01-12T03:23:03.017Z,1023.1
2019-01-12T03:24:03.845Z,1023.1
2019-01-12T03:25:03.337Z,1022.9
2019-01-12T03:26:03.212Z,1023
2019-01-12T03:27:03.147Z,1023
2019-01-12T03:28:03.240Z,1023.1
2019-01-12T03:29:02.963Z,1022.9
2019-01-12T03:30:03.297Z,1023
2019-01-12T03:31:03.154Z,1022.9
2019-01-12T03:32:02.953Z,1022.9
2019-01-12T03:33:03.107Z,1023.1
2019-01-12T03:34:03.024Z,1023
2019-01-12T03:35:02.945Z,1023.1
2019-01-12T03:36:03.370Z,1023
2019-01-12T03:37:03.201Z,1023.1
2019-01-12T03:38:02.985Z,1022.9
2019-01-12T03:39:03.622Z,1023
2019-01-12T03:40:03.486Z,1023
2019-01-12T03:41:03.785Z,1023
2019-01-12T03:42:03.821Z,1023.1
2019-01-12T03:43:03.225Z,1023
2019-01-12T03:44:03.079Z,1023
2019-01-12T03:45:03.756Z,1023
2019-01-12T03:46:03.448Z,1023
2019-01-12T03:47:02.992Z,1023.1
2019-01-12T03:48:03.350Z,1023
2019-01-12T03:49:03.506Z,1023
2019-01-12T03:50:03.297Z,1023
2019-01-12T03:51:03.349Z,1023.1
2019-01-12T03:52:03.317Z,1023.1
2019-01-12T03:53:03.707Z,1023
2019-01-12T03:54:02.907Z,1022.9
2019-01-12T03:55:03.871Z,1022.9
2019-01-12T03:56:03.318Z,1023
2019-01-12T03:57:02.797Z,1023
2019-01-12T03:58:03.187Z,1023
2019-01-12T03:59:03.467Z,1023
2019-01-12T04:00:03.980Z,1023
2019-01-12T04:01:02.847Z,1023
2019-01-12T04:02:03.762Z,1022.9
2019-01-12T04:03:03.325Z,1022.9
2019-01-12T04:04:03.650Z,1022.9
2019-01-12T04:05:03.682Z,1022.9
2019-01-12T04:06:03.470Z,1022.9
2019-01-12T04:07:03.657Z,1022.8
2019-01-12T04:08:03.221Z,1022.8
2019-01-12T04:09:03.396Z,1022.9
2019-01-12T04:10:03.205Z,1022.9
2019-01-12T04:11:03.353Z,1022.8
2019-01-12T04:12:02.950Z,1022.8
2019-01-12T04:13:03.329Z,1022.8
2019-01-12T04:14:03.021Z,1022.8
2019-01-12T04:15:03.587Z,1022.8
2019-01-12T04:16:03.595Z,1022.8
2019-01-12T04:17:03.449Z,1022.8
2019-01-12T04:18:02.907Z,1022.7
2019-01-12T04:19:03.819Z,1022.6
2019-01-12T04:20:03.800Z,1022.7
2019-01-12T04:21:03.099Z,1022.7
2019-01-12T04:22:03.778Z,1022.6
2019-01-12T04:23:02.948Z,1022.7
2019-01-12T04:24:03.273Z,1022.7
2019-01-12T04:25:03.587Z,1022.7
2019-01-12T04:26:03.316Z,1022.7
2019-01-12T04:27:03.602Z,1022.8
2019-01-12T04:28:03.342Z,1022.7
2019-01-12T04:29:03.254Z,1022.7
2019-01-12T04:30:03.303Z,1022.7
2019-01-12T04:31:02.986Z,1022.8
2019-01-12T04:32:03.652Z,1022.8
2019-01-12T04:33:03.350Z,1022.6
2019-01-12T04:34:03.642Z,1022.8
2019-01-12T04:35:03.787Z,1022.5
2019-01-12T04:36:03.167Z,1022.4
2019-01-12T04:37:03.285Z,1022.6
2019-01-12T04:38:03.257Z,1022.6
2019-01-12T04:39:03.421Z,1022.5
2019-01-12T04:40:03.510Z,1022.5
2019-01-12T04:41:03.301Z,1022.6
2019-01-12T04:42:03.181Z,1022.6
2019-01-12T04:43:03.064Z,1022.5
2019-01-12T04:44:02.842Z,1022.6
2019-01-12T04:45:03.234Z,1022.5
2019-01-12T04:46:03.249Z,1022.5
2019-01-12T04:47:03.526Z,1022.5
2019-01-12T04:48:02.867Z,1022.8
2019-01-12T04:49:03.268Z,1022.6
2019-01-12T04:50:03.132Z,1022.6
2019-01-12T04:51:03.029Z,1022.6
2019-01-12T04:52:03.119Z,1022.5
2019-01-12T04:53:03.296Z,1022.6
2019-01-12T04:54:02.957Z,1022.5
2019-01-12T04:55:03.005Z,1022.5
2019-01-12T04:56:03.157Z,1022.6
2019-01-12T04:57:02.932Z,1022.6
2019-01-12T04:58:02.951Z,1022.6
2019-01-12T04:59:03.298Z,1022.8
2019-01-12T05:00:03.250Z,1022.5
2019-01-12T05:01:03.338Z,1022.5
2019-01-12T05:02:03.758Z,1022.5
2019-01-12T05:03:03.396Z,1022.6
2019-01-12T05:04:02.990Z,1022.5
2019-01-12T05:05:03.196Z,1022.6
2019-01-12T05:06:02.839Z,1022.6
2019-01-12T05:07:03.182Z,1022.6
2019-01-12T05:08:03.573Z,1022.6
2019-01-12T05:09:03.288Z,1022.6
2019-01-12T05:10:03.849Z,1022.7
2019-01-12T05:11:03.811Z,1022.6
2019-01-12T05:12:03.710Z,1022.7
2019-01-12T05:13:03.101Z,1022.5
2019-01-12T05:14:02.926Z,1022.5
2019-01-12T05:15:03.466Z,1022.5
2019-01-12T05:16:03.581Z,1022.7
2019-01-12T05:17:03.148Z,1022.6
2019-01-12T05:18:03.422Z,1022.6
2019-01-12T05:19:02.974Z,1022.5
2019-01-12T05:20:03.161Z,1022.6
2019-01-12T05:21:03.274Z,1022.6
2019-01-12T05:22:03.670Z,1022.7
2019-01-12T05:23:03.219Z,1022.7
2019-01-12T05:24:03.858Z,1022.6
2019-01-12T05:25:03.495Z,1022.6
2019-01-12T05:26:02.824Z,1022.6
2019-01-12T05:27:03.008Z,1022.6
2019-01-12T05:28:03.207Z,1022.6
2019-01-12T05:29:03.000Z,1022.8
2019-01-12T05:30:03.008Z,1022.6
2019-01-12T05:31:03.363Z,1022.7
2019-01-12T05:32:03.592Z,1022.8
2019-01-12T05:33:02.961Z,1022.6
2019-01-12T05:34:03.643Z,1022.8
2019-01-12T05:35:02.937Z,1022.8
2019-01-12T05:36:03.052Z,1022.9
2019-01-12T05:37:03.347Z,1022.8
2019-01-12T05:38:02.924Z,1022.8
2019-01-12T05:39:02.862Z,1022.6
2019-01-12T05:40:03.895Z,1022.8
2019-01-12T05:41:02.970Z,1022.6
2019-01-12T05:42:03.445Z,1022.6
2019-01-12T05:43:03.455Z,1022.8
2019-01-12T05:44:03.111Z,1022.8
2019-01-12T05:45:03.595Z,1022.9
2019-01-12T05:46:03.060Z,1022.6
2019-01-12T05:47:03.226Z,1022.5
2019-01-12T05:48:03.157Z,1022.8
2019-01-12T05:49:03.930Z,1022.8
2019-01-12T05:50:03.200Z,1022.8
2019-01-12T05:51:03.494Z,1022.8
2019-01-12T05:52:03.196Z,1022.6
2019-01-12T05:53:03.242Z,1022.6
2019-01-12T05:54:03.149Z,1022.8
2019-01-12T05:55:03.436Z,1022.6
2019-01-12T05:56:03.032Z,1022.8
2019-01-12T05:57:03.130Z,1022.8
2019-01-12T05:58:03.044Z,1022.8
2019-01-12T05:59:03.012Z,1022.8
2019-01-12T06:00:03.721Z,1022.8
2019-01-12T06:01:03.155Z,1022.8
2019-01-12T06:02:02.943Z,1022.9
2019-01-12T06:03:03.633Z,1022.8
2019-01-12T06:04:03.316Z,1022.9
2019-01-12T06:05:03.481Z,1022.9
2019-01-12T06:06:03.654Z,1022.8
2019-01-12T06:07:03.506Z,1022.9
2019-01-12T06:08:03.277Z,1022.9
2019-01-12T06:09:03.519Z,1022.9
2019-01-12T06:10:03.205Z,1022.9
2019-01-12T06:11:03.825Z,1022.9
2019-01-12T06:12:03.132Z,1022.9
2019-01-12T06:13:03.492Z,1022.9
2019-01-12T06:14:03.441Z,1022.8
2019-01-12T06:15:03.079Z,1022.8
2019-01-12T06:16:02.918Z,1022.8
2019-01-12T06:17:02.951Z,1022.8
2019-01-12T06:18:03.878Z,1022.7
2019-01-12T06:19:03.350Z,1022.8
2019-01-12T06:20:03.250Z,1022.6
2019-01-12T06:21:03.235Z,1022.7
2019-01-12T06:22:02.898Z,1022.9
2019-01-12T06:23:02.714Z,1022.8
2019-01-12T06:24:03.560Z,1022.7
2019-01-12T06:25:03.471Z,1022.7
2019-01-12T06:26:04.595Z,1022.8
2019-01-12T06:27:03.273Z,1022.8
2019-01-12T06:28:03.134Z,1022.7
2019-01-12T06:29:03.182Z,1022.9
2019-01-12T06:30:03.588Z,1022.8
2019-01-12T06:31:03.754Z,1022.7
2019-01-12T06:32:03.611Z,1022.6
2019-01-12T06:33:03.035Z,1022.7
2019-01-12T06:34:02.842Z,1022.8
2019-01-12T06:35:02.985Z,1022.8
2019-01-12T06:36:03.607Z,1022.7
2019-01-12T06:37:03.208Z,1022.8
2019-01-12T06:38:03.013Z,1022.7
2019-01-12T06:39:03.598Z,1022.7
2019-01-12T06:40:03.675Z,1022.8
2019-01-12T06:41:03.681Z,1022.8
2019-01-12T06:42:03.035Z,1022.8
2019-01-12T06:43:03.599Z,1022.8
2019-01-12T06:44:02.799Z,1022.8
2019-01-12T06:45:03.136Z,1022.8
2019-01-12T06:46:03.319Z,1022.8
2019-01-12T06:47:03.628Z,1022.8
2019-01-12T06:48:03.717Z,1023
2019-01-12T06:49:03.574Z,1022.8
2019-01-12T06:50:03.755Z,1022.8
2019-01-12T06:51:03.018Z,1022.9
2019-01-12T06:52:03.601Z,1022.8
2019-01-12T06:53:03.506Z,1022.9
2019-01-12T06:54:03.053Z,1022.9
2019-01-12T06:55:03.752Z,1022.9
2019-01-12T06:56:02.978Z,1022.9
2019-01-12T06:57:02.910Z,1022.9
2019-01-12T06:58:03.462Z,1022.9
2019-01-12T06:59:03.713Z,1022.8
2019-01-12T07:00:03.029Z,1022.8
2019-01-12T07:01:03.300Z,1022.9
2019-01-12T07:02:03.432Z,1022.9
2019-01-12T07:03:03.326Z,1022.9
2019-01-12T07:04:03.325Z,1022.9
2019-01-12T07:05:03.782Z,1022.9
2019-01-12T07:06:03.404Z,1022.8
2019-01-12T07:07:03.151Z,1022.8
2019-01-12T07:08:02.855Z,1022.8
2019-01-12T07:09:02.912Z,1022.9
2019-01-12T07:10:03.757Z,1022.8
2019-01-12T07:11:03.321Z,1022.9
2019-01-12T07:12:03.189Z,1022.9
2019-01-12T07:13:03.511Z,1022.7
2019-01-12T07:14:03.125Z,1022.8
2019-01-12T07:15:03.692Z,1022.8
2019-01-12T07:16:03.068Z,1022.8
2019-01-12T07:17:03.348Z,1022.8
2019-01-12T07:18:09.412Z,1022.8
2019-01-12T07:19:03.257Z,1022.8
2019-01-12T07:20:03.632Z,1022.8
2019-01-12T07:21:02.832Z,1022.8
2019-01-12T07:22:03.507Z,1022.9
2019-01-12T07:23:03.157Z,1022.8
2019-01-12T07:24:03.014Z,1022.9
2019-01-12T07:25:03.657Z,1022.8
2019-01-12T07:26:03.732Z,1022.8
2019-01-12T07:27:03.158Z,1022.9
2019-01-12T07:28:03.722Z,1022.8
2019-01-12T07:29:03.655Z,1022.9
2019-01-12T07:30:03.129Z,1022.9
2019-01-12T07:31:03.627Z,1022.9
2019-01-12T07:32:02.915Z,1023
2019-01-12T07:33:03.092Z,1023
2019-01-12T07:34:03.504Z,1023
2019-01-12T07:35:03.132Z,1022.9
2019-01-12T07:36:02.908Z,1023
2019-01-12T07:37:03.509Z,1023
2019-01-12T07:38:03.330Z,1022.9
2019-01-12T07:39:03.233Z,1023
2019-01-12T07:40:03.167Z,1023
2019-01-12T07:41:03.036Z,1023
2019-01-12T07:42:03.073Z,1023
2019-01-12T07:43:03.349Z,1023
2019-01-12T07:44:03.831Z,1023.1
2019-01-12T07:45:02.786Z,1023.1
2019-01-12T07:46:03.299Z,1023.1
2019-01-12T07:47:03.714Z,1023
2019-01-12T07:48:02.896Z,1023
2019-01-12T07:49:02.695Z,1023
2019-01-12T07:50:03.841Z,1023.1
2019-01-12T07:51:03.277Z,1023.1
2019-01-12T07:52:03.361Z,1023
2019-01-12T07:53:02.957Z,1023
2019-01-12T07:54:03.191Z,1023
2019-01-12T07:55:03.747Z,1023
2019-01-12T07:56:02.644Z,1022.9
2019-01-12T07:57:03.676Z,1023
2019-01-12T07:58:03.490Z,1023
2019-01-12T07:59:02.952Z,1023
2019-01-12T08:00:03.144Z,1023.1
2019-01-12T08:01:03.454Z,1023
2019-01-12T08:02:03.551Z,1023.1
2019-01-12T08:03:03.470Z,1023
2019-01-12T08:04:03.241Z,1023.1
2019-01-12T08:05:03.793Z,1023
2019-01-12T08:06:03.616Z,1023.1
2019-01-12T08:07:03.596Z,1023.1
2019-01-12T08:08:03.103Z,1023
2019-01-12T08:09:02.999Z,1023.1
2019-01-12T08:10:03.495Z,1023
2019-01-12T08:11:03.870Z,1023
2019-01-12T08:12:03.397Z,1023.1
2019-01-12T08:13:03.403Z,1023
2019-01-12T08:14:03.617Z,1023
2019-01-12T08:15:03.171Z,1023
2019-01-12T08:16:03.377Z,1022.9
2019-01-12T08:17:03.281Z,1023
2019-01-12T08:18:03.476Z,1023
2019-01-12T08:19:03.388Z,1022.9
2019-01-12T08:20:03.944Z,1023
2019-01-12T08:21:03.022Z,1023
2019-01-12T08:22:03.585Z,1023
2019-01-12T08:23:03.035Z,1023.2
2019-01-12T08:24:03.355Z,1023
2019-01-12T08:25:03.769Z,1023.2
2019-01-12T08:26:03.694Z,1023.2
2019-01-12T08:27:03.613Z,1023.2
2019-01-12T08:28:02.900Z,1023.2
2019-01-12T08:29:02.920Z,1023.1
2019-01-12T08:30:03.101Z,1023.1
2019-01-12T08:31:02.918Z,1023.1
2019-01-12T08:32:03.166Z,1023.2
2019-01-12T08:33:03.983Z,1023.1
2019-01-12T08:34:02.858Z,1023.2
2019-01-12T08:35:03.322Z,1023
2019-01-12T08:36:03.669Z,1023.1
2019-01-12T08:37:03.275Z,1023.1
2019-01-12T08:38:03.398Z,1023.2
2019-01-12T08:39:02.956Z,1023.2
2019-01-12T08:40:03.771Z,1023.2
2019-01-12T08:41:03.379Z,1023.2
2019-01-12T08:42:03.680Z,1023.2
2019-01-12T08:43:03.527Z,1023.3
2019-01-12T08:44:03.879Z,1023.2
2019-01-12T08:45:03.460Z,1023.2
2019-01-12T08:46:03.505Z,1023.2
2019-01-12T08:47:03.160Z,1023.2
2019-01-12T08:48:03.264Z,1023.2
2019-01-12T08:49:03.929Z,1023.3
2019-01-12T08:50:03.840Z,1023.2
2019-01-12T08:51:03.048Z,1023.3
2019-01-12T08:52:03.553Z,1023.3
2019-01-12T08:53:02.904Z,1023.2
2019-01-12T08:54:02.861Z,1023.1
2019-01-12T08:55:03.388Z,1023.1
2019-01-12T08:56:03.764Z,1023.2
2019-01-12T08:57:03.600Z,1023.2
2019-01-12T08:58:03.209Z,1023.2
2019-01-12T08:59:03.496Z,1023.2
2019-01-12T09:00:02.910Z,1023.1
2019-01-12T09:01:03.421Z,1023.2
2019-01-12T09:02:03.193Z,1023.1
2019-01-12T09:03:03.608Z,1023.1
2019-01-12T09:04:03.132Z,1023.2
2019-01-12T09:05:03.445Z,1023.1
2019-01-12T09:06:03.151Z,1023.2
2019-01-12T09:07:03.791Z,1023.2
2019-01-12T09:08:03.626Z,1023.2
2019-01-12T09:09:03.530Z,1022.9
2019-01-12T09:10:03.309Z,1022.9
2019-01-12T09:11:03.673Z,1023.2
2019-01-12T09:12:03.060Z,1023
2019-01-12T09:13:03.141Z,1022.9
2019-01-12T09:14:03.212Z,1022.9
2019-01-12T09:15:03.804Z,1022.9
2019-01-12T09:16:03.759Z,1022.9
2019-01-12T09:17:03.131Z,1022.9
2019-01-12T09:18:03.143Z,1022.9
2019-01-12T09:19:03.701Z,1022.9
2019-01-12T09:20:03.166Z,1022.8
2019-01-12T09:21:03.732Z,1022.9
2019-01-12T09:22:02.943Z,1022.9
2019-01-12T09:23:03.181Z,1022.9
2019-01-12T09:24:03.549Z,1022.9
2019-01-12T09:25:03.357Z,1022.8
2019-01-12T09:26:03.216Z,1022.8
2019-01-12T09:27:03.014Z,1022.8
2019-01-12T09:28:03.303Z,1022.9
2019-01-12T09:29:03.792Z,1022.9
2019-01-12T09:30:02.741Z,1022.9
2019-01-12T09:31:03.701Z,1022.9
2019-01-12T09:32:03.995Z,1022.9
2019-01-12T09:33:03.072Z,1022.8
2019-01-12T09:34:03.473Z,1022.9
2019-01-12T09:35:03.858Z,1022.8
2019-01-12T09:36:03.621Z,1022.9
2019-01-12T09:37:03.397Z,1022.8
2019-01-12T09:38:03.621Z,1022.8
2019-01-12T09:39:03.241Z,1022.9
2019-01-12T09:40:03.231Z,1022.9
2019-01-12T09:41:03.296Z,1022.9
2019-01-12T09:42:03.364Z,1022.9
2019-01-12T09:43:03.432Z,1022.8
2019-01-12T09:44:03.549Z,1022.8
2019-01-12T09:45:03.227Z,1022.9
2019-01-12T09:46:03.365Z,1022.8
2019-01-12T09:47:03.114Z,1022.9
2019-01-12T09:48:03.200Z,1022.8
2019-01-12T09:49:03.097Z,1022.8
2019-01-12T09:50:03.293Z,1022.8
2019-01-12T09:51:03.108Z,1022.8
2019-01-12T09:52:03.417Z,1022.8
2019-01-12T09:53:03.648Z,1022.7
2019-01-12T09:54:03.456Z,1022.6
2019-01-12T09:55:03.671Z,1022.6
2019-01-12T09:56:03.150Z,1022.6
2019-01-12T09:57:03.005Z,1022.6
2019-01-12T09:58:03.268Z,1022.6
2019-01-12T09:59:03.544Z,1022.5
2019-01-12T10:00:03.047Z,1022.6
2019-01-12T10:01:03.685Z,1022.5
2019-01-12T10:02:03.300Z,1022.5
2019-01-12T10:03:03.306Z,1022.5
2019-01-12T10:04:03.203Z,1022.5
2019-01-12T10:05:03.870Z,1022.5
2019-01-12T10:06:03.603Z,1022.4
2019-01-12T10:07:02.922Z,1022.4
2019-01-12T10:08:02.981Z,1022.4
2019-01-12T10:09:02.868Z,1022.4
2019-01-12T10:10:03.658Z,1022.4
2019-01-12T10:11:03.055Z,1022.4
2019-01-12T10:12:03.624Z,1022.4
2019-01-12T10:13:03.857Z,1022.5
2019-01-12T10:14:03.807Z,1022.3
2019-01-12T10:15:03.413Z,1022.4
2019-01-12T10:16:03.422Z,1022.4
2019-01-12T10:17:03.172Z,1022.3
2019-01-12T10:18:02.950Z,1022.3
2019-01-12T10:19:02.890Z,1022.4
2019-01-12T10:20:03.149Z,1022.4
2019-01-12T10:21:02.795Z,1022.4
2019-01-12T10:22:03.147Z,1022.4
2019-01-12T10:23:03.494Z,1022.3
2019-01-12T10:24:02.729Z,1022.3
2019-01-12T10:25:03.239Z,1022.3
2019-01-12T10:26:03.026Z,1022.2
2019-01-12T10:27:03.117Z,1022.3
2019-01-12T10:28:03.755Z,1022.2
2019-01-12T10:29:03.435Z,1022.2
2019-01-12T10:30:03.257Z,1022.3
2019-01-12T10:31:03.000Z,1022.2
2019-01-12T10:32:03.462Z,1022.3
2019-01-12T10:33:03.161Z,1022.2
2019-01-12T10:34:03.119Z,1022.1
2019-01-12T10:35:03.631Z,1022.3
2019-01-12T10:36:03.992Z,1022.2
2019-01-12T10:37:02.995Z,1022.2
2019-01-12T10:38:02.885Z,1022.2
2019-01-12T10:39:03.048Z,1022.2
2019-01-12T10:40:03.664Z,1022.1
2019-01-12T10:41:03.690Z,1022.1
2019-01-12T10:42:02.982Z,1022.2
2019-01-12T10:43:03.821Z,1022.2
2019-01-12T10:44:03.325Z,1022.3
2019-01-12T10:45:04.993Z,1022.2
2019-01-12T10:46:04.050Z,1022.3
2019-01-12T10:47:02.776Z,1022.3
2019-01-12T10:48:02.893Z,1022.3
2019-01-12T10:49:03.199Z,1022.2
2019-01-12T10:50:03.202Z,1022.3
2019-01-12T10:51:03.485Z,1022.3
2019-01-12T10:52:03.640Z,1022.1
2019-01-12T10:53:03.062Z,1022.1
2019-01-12T10:54:03.171Z,1022.3
2019-01-12T10:55:03.332Z,1022.1
2019-01-12T10:56:03.088Z,1022.2
2019-01-12T10:57:06.160Z,1022.2
2019-01-12T10:58:02.926Z,1022.2
2019-01-12T10:59:02.988Z,1022.1
2019-01-12T11:00:03.568Z,1022.2
2019-01-12T11:01:03.317Z,1021.9
2019-01-12T11:02:03.225Z,1022.1
2019-01-12T11:03:03.478Z,1022.1
2019-01-12T11:04:02.886Z,1021.9
2019-01-12T11:05:03.668Z,1021.9
2019-01-12T11:06:03.621Z,1022.1
2019-01-12T11:07:03.231Z,1022.1
2019-01-12T11:08:02.957Z,1021.9
2019-01-12T11:09:03.468Z,1021.9
2019-01-12T11:10:04.824Z,1021.9
2019-01-12T11:11:02.914Z,1021.8
2019-01-12T11:12:02.652Z,1021.8
2019-01-12T11:13:03.329Z,1021.8
2019-01-12T11:14:03.002Z,1021.8
2019-01-12T11:15:03.271Z,1021.8
2019-01-12T11:16:03.502Z,1021.9
2019-01-12T11:17:03.349Z,1021.7
2019-01-12T11:18:03.314Z,1021.8
2019-01-12T11:19:03.081Z,1021.8
2019-01-12T11:20:03.331Z,1021.7
2019-01-12T11:21:03.757Z,1021.7
2019-01-12T11:22:03.007Z,1021.8
2019-01-12T11:23:03.422Z,1021.7
2019-01-12T11:24:04.168Z,1021.7
2019-01-12T11:25:03.577Z,1021.7
2019-01-12T11:26:03.292Z,1021.7
2019-01-12T11:27:03.467Z,1021.7
2019-01-12T11:28:03.096Z,1021.7
2019-01-12T11:29:03.163Z,1021.7
2019-01-12T11:30:03.499Z,1021.7
2019-01-12T11:31:03.257Z,1021.7
2019-01-12T11:32:03.705Z,1021.7
2019-01-12T11:33:03.490Z,1021.7
2019-01-12T11:34:02.951Z,1021.7
2019-01-12T11:35:03.793Z,1021.6
2019-01-12T11:36:02.856Z,1021.6
2019-01-12T11:37:03.406Z,1021.5
2019-01-12T11:38:03.706Z,1021.5
2019-01-12T11:39:03.451Z,1021.5
2019-01-12T11:40:03.330Z,1021.5
2019-01-12T11:41:03.528Z,1021.5
2019-01-12T11:42:03.372Z,1021.3
2019-01-12T11:43:03.006Z,1021.4
2019-01-12T11:44:03.465Z,1021.4
2019-01-12T11:45:03.538Z,1021.4
2019-01-12T11:46:03.417Z,1021.4
2019-01-12T11:47:03.041Z,1021.3
2019-01-12T11:48:03.148Z,1021.2
2019-01-12T11:49:03.547Z,1021.3
2019-01-12T11:50:03.525Z,1021.2
2019-01-12T11:51:02.978Z,1021.4
2019-01-12T11:52:03.604Z,1021.3
2019-01-12T11:53:03.547Z,1021.3
2019-01-12T11:54:02.886Z,1021.2
2019-01-12T11:55:03.578Z,1021.4
2019-01-12T11:56:02.921Z,1021.1
2019-01-12T11:57:03.424Z,1021.2
2019-01-12T11:58:03.382Z,1021.1
2019-01-12T11:59:03.180Z,1021.1
2019-01-12T12:00:03.202Z,1021.1
2019-01-12T12:01:02.950Z,1021
2019-01-12T12:02:03.071Z,1020.9
2019-01-12T12:03:03.697Z,1021
2019-01-12T12:04:03.151Z,1021
2019-01-12T12:05:03.080Z,1021
2019-01-12T12:06:02.914Z,1021
2019-01-12T12:07:03.123Z,1020.9
2019-01-12T12:08:03.230Z,1021
2019-01-12T12:09:02.945Z,1021.1
2019-01-12T12:10:03.209Z,1021
2019-01-12T12:11:03.155Z,1021
2019-01-12T12:12:03.068Z,1020.9
2019-01-12T12:13:03.402Z,1020.9
2019-01-12T12:14:03.651Z,1020.9
2019-01-12T12:15:03.777Z,1020.9
2019-01-12T12:16:03.702Z,1020.9
2019-01-12T12:17:03.582Z,1020.9
2019-01-12T12:18:03.763Z,1020.9
2019-01-12T12:19:03.690Z,1020.8
2019-01-12T12:20:03.427Z,1020.9
2019-01-12T12:21:03.718Z,1020.8
2019-01-12T12:22:03.395Z,1020.9
2019-01-12T12:23:03.163Z,1020.8
2019-01-12T12:24:03.511Z,1020.7
2019-01-12T12:25:03.080Z,1020.7
2019-01-12T12:26:02.793Z,1020.7
2019-01-12T12:27:02.994Z,1020.8
2019-01-12T12:28:03.345Z,1020.8
2019-01-12T12:29:03.764Z,1020.7
2019-01-12T12:30:03.239Z,1020.6
2019-01-12T12:31:03.138Z,1020.6
2019-01-12T12:32:03.440Z,1020.6
2019-01-12T12:33:02.924Z,1020.6
2019-01-12T12:34:03.146Z,1020.6